createdAt,value
2022-12-15T00:00:52.868Z,96778.28
2022-12-15T00:04:21.607Z,96776.83
2022-12-15T00:07:43.165Z,96776.39
2022-12-15T00:11:04.457Z,96779.25
2022-12-15T00:14:27.471Z,96782.34
2022-12-15T00:17:49.010Z,96786.20
2022-12-15T00:21:10.631Z,96790.43
2022-12-15T00:24:32.226Z,96796.67
2022-12-15T00:27:53.691Z,96802.57
2022-12-15T00:31:17.570Z,96806.60
2022-12-15T00:34:39.259Z,96810.73
2022-12-15T00:38:00.893Z,96813.62
2022-12-15T00:41:04.881Z,96816.04
2022-12-15T00:44:07.878Z,96826.92
2022-12-15T00:47:10.878Z,96824.71
2022-12-15T00:50:32.613Z,96820.66
2022-12-15T00:53:54.028Z,96819.37
2022-12-15T00:57:16.168Z,96824.47
2022-12-15T01:00:38.338Z,96827.86
2022-12-15T01:03:59.921Z,96837.73
2022-12-15T01:07:21.636Z,96840.79
2022-12-15T01:10:43.004Z,96838.67
2022-12-15T01:14:05.018Z,96834.75
2022-12-15T01:17:26.753Z,96841.70
2022-12-15T01:20:32.788Z,96848.49
2022-12-15T01:23:37.708Z,96850.39
2022-12-15T01:26:40.718Z,96854.88
2022-12-15T01:29:43.903Z,96849.65
2022-12-15T01:32:46.969Z,96853.54
2022-12-15T01:36:00.741Z,96855.18
2022-12-15T01:39:03.810Z,96858.74
2022-12-15T01:42:12.399Z,96864.17
2022-12-15T01:45:24.464Z,96871.05
2022-12-15T01:48:38.492Z,96873.64
2022-12-15T01:51:47.227Z,96874.12
2022-12-15T01:54:54.046Z,96870.06
2022-12-15T01:58:03.462Z,96874.18
2022-12-15T02:01:07.386Z,96879.76
2022-12-15T02:04:10.779Z,96880.79
2022-12-15T02:07:15.756Z,96881.01
2022-12-15T02:10:18.918Z,96885.98
2022-12-15T02:13:28.461Z,96888.80
2022-12-15T02:17:14.836Z,96888.96
2022-12-15T02:20:39.184Z,96897.52
2022-12-15T02:24:04.489Z,96898.70
2022-12-15T02:27:10.119Z,96902.33
2022-12-15T02:30:42.428Z,96906.52
2022-12-15T02:33:54.872Z,96908.94
2022-12-15T02:37:26.230Z,96918.05
2022-12-15T02:40:29.343Z,96923.61
2022-12-15T02:43:37.171Z,96918.21
2022-12-15T02:46:46.029Z,96919.63
2022-12-15T02:50:06.927Z,96926.73
2022-12-15T02:53:35.867Z,96927.00
2022-12-15T02:56:48.152Z,96928.60
2022-12-15T02:59:57.836Z,96934.77
2022-12-15T03:03:01.505Z,96934.45
2022-12-15T03:06:04.878Z,96936.29
2022-12-15T03:09:07.947Z,96938.92
2022-12-15T03:12:11.076Z,96943.52
2022-12-15T03:15:14.091Z,96954.78
2022-12-15T03:18:17.182Z,96960.77
2022-12-15T03:21:20.273Z,96969.09
2022-12-15T03:24:23.232Z,96972.09
2022-12-15T03:27:26.268Z,96976.67
2022-12-15T03:30:29.401Z,96974.36
2022-12-15T03:33:34.642Z,96973.02
2022-12-15T03:36:38.386Z,96974.90
2022-12-15T03:39:41.406Z,96972.97
2022-12-15T03:42:48.585Z,96974.21
2022-12-15T03:45:51.749Z,96977.60
2022-12-15T03:48:54.775Z,96983.84
2022-12-15T03:51:57.812Z,96986.65
2022-12-15T03:55:00.754Z,96991.17
2022-12-15T03:58:03.976Z,97002.19
2022-12-15T04:01:23.394Z,97011.41
2022-12-15T04:04:26.525Z,97017.30
2022-12-15T04:07:29.477Z,97022.06
2022-12-15T04:10:35.311Z,97023.75
2022-12-15T04:13:38.413Z,97018.91
2022-12-15T04:16:41.564Z,97018.91
2022-12-15T04:20:03.146Z,97016.90
2022-12-15T04:23:09.552Z,97023.33
2022-12-15T04:26:31.352Z,97031.91
2022-12-15T04:29:52.997Z,97038.07
2022-12-15T04:33:14.617Z,97041.34
2022-12-15T04:36:36.545Z,97043.50
2022-12-15T04:40:05.300Z,97057.92
2022-12-15T04:43:26.957Z,97061.52
2022-12-15T04:46:48.535Z,97066.30
2022-12-15T04:50:10.259Z,97064.35
2022-12-15T04:53:35.122Z,97070.66
2022-12-15T04:56:56.845Z,97071.85
2022-12-15T05:00:18.318Z,97072.59
2022-12-15T05:03:42.802Z,97083.21
2022-12-15T05:07:04.135Z,97091.40
2022-12-15T05:10:26.466Z,97091.66
2022-12-15T05:13:48.220Z,97094.89
2022-12-15T05:17:09.834Z,97096.09
2022-12-15T05:20:31.562Z,97108.59
2022-12-15T05:23:53.085Z,97130.65
2022-12-15T05:27:15.008Z,97129.27
2022-12-15T05:30:36.372Z,97129.70
2022-12-15T05:33:39.385Z,97137.70
2022-12-15T05:36:42.559Z,97148.36
2022-12-15T05:39:45.611Z,97148.70
2022-12-15T05:42:50.193Z,97147.33
2022-12-15T05:45:53.524Z,97147.42
2022-12-15T05:48:56.581Z,97152.85
2022-12-15T05:51:59.558Z,97165.80
2022-12-15T05:55:02.659Z,97177.67
2022-12-15T05:58:05.634Z,97179.19
2022-12-15T06:01:12.011Z,97184.45
2022-12-15T06:04:15.240Z,97183.29
2022-12-15T06:07:18.330Z,97187.26
2022-12-15T06:10:24.019Z,97189.16
2022-12-15T06:13:28.949Z,97198.69
2022-12-15T06:16:33.209Z,97215.23
2022-12-15T06:19:36.286Z,97222.15
2022-12-15T06:22:39.417Z,97229.27
2022-12-15T06:25:44.825Z,97232.02
2022-12-15T06:28:49.623Z,97233.73
2022-12-15T06:31:52.724Z,97238.08
2022-12-15T06:34:55.789Z,97237.92
2022-12-15T06:37:58.759Z,97235.66
2022-12-15T06:41:04.090Z,97230.46
2022-12-15T06:44:07.845Z,97236.35
2022-12-15T06:47:10.917Z,97241.00
2022-12-15T06:50:14.015Z,97241.23
2022-12-15T06:53:19.829Z,97243.63
2022-12-15T06:56:32.605Z,97246.94
2022-12-15T06:59:36.879Z,97262.62
2022-12-15T07:02:42.477Z,97262.84
2022-12-15T07:05:46.715Z,97281.78
2022-12-15T07:08:56.820Z,97295.63
2022-12-15T07:11:59.988Z,97304.67
2022-12-15T07:15:03.157Z,97310.14
2022-12-15T07:18:06.750Z,97308.04
2022-12-15T07:21:10.538Z,97313.64
2022-12-15T07:24:14.040Z,97313.94
2022-12-15T07:27:18.222Z,97316.98
2022-12-15T07:30:21.207Z,97325.11
2022-12-15T07:33:24.210Z,97321.84
2022-12-15T07:36:30.155Z,97341.67
2022-12-15T07:39:33.370Z,97348.40
2022-12-15T07:42:36.481Z,97355.20
2022-12-15T07:45:39.552Z,97353.46
2022-12-15T07:48:42.882Z,97359.42
2022-12-15T07:51:46.053Z,97363.98
2022-12-15T07:54:49.120Z,97369.06
2022-12-15T07:57:52.124Z,97373.97
2022-12-15T08:01:02.916Z,97372.38
2022-12-15T08:04:06.367Z,97376.55
2022-12-15T08:07:11.476Z,97381.21
2022-12-15T08:10:14.500Z,97388.02
2022-12-15T08:13:38.109Z,97396.34
2022-12-15T08:16:40.663Z,97407.88
2022-12-15T08:19:44.084Z,97413.51
2022-12-15T08:22:47.096Z,97420.51
2022-12-15T08:25:50.151Z,97424.63
2022-12-15T08:28:53.582Z,97426.59
2022-12-15T08:31:56.724Z,97425.81
2022-12-15T08:34:59.959Z,97426.04
2022-12-15T08:38:05.734Z,97431.63
2022-12-15T08:41:17.121Z,97432.52
2022-12-15T08:44:20.209Z,97429.39
2022-12-15T08:47:23.290Z,97432.21
2022-12-15T08:50:26.300Z,97433.98
2022-12-15T08:53:31.889Z,97440.17
2022-12-15T08:56:36.010Z,97445.84
2022-12-15T08:59:39.028Z,97454.77
2022-12-15T09:02:42.089Z,97456.88
2022-12-15T09:05:45.197Z,97455.94
2022-12-15T09:08:50.507Z,97441.16
2022-12-15T09:11:53.734Z,97433.92
2022-12-15T09:14:56.872Z,97441.67
2022-12-15T09:18:00.582Z,97459.11
2022-12-15T09:21:06.072Z,97456.28
2022-12-15T09:24:18.379Z,97463.44
2022-12-15T09:27:29.343Z,97473.14
2022-12-15T09:30:32.409Z,97473.04
2022-12-15T09:33:36.497Z,97479.49
2022-12-15T09:36:40.879Z,97475.55
2022-12-15T09:39:44.064Z,97482.34
2022-12-15T09:43:05.085Z,97488.14
2022-12-15T09:46:42.319Z,97487.34
2022-12-15T09:49:59.070Z,97486.92
2022-12-15T09:53:03.439Z,97489.53
2022-12-15T09:56:21.643Z,97494.22
2022-12-15T10:00:01.934Z,97495.70
2022-12-15T10:03:45.366Z,97499.75
2022-12-15T10:07:07.883Z,97502.13
2022-12-15T10:10:19.993Z,97502.29
2022-12-15T10:13:34.411Z,97511.02
2022-12-15T10:16:52.960Z,97508.17
2022-12-15T10:20:06.510Z,97503.44
2022-12-15T10:23:15.375Z,97514.14
2022-12-15T10:26:23.363Z,97503.27
2022-12-15T10:33:25.471Z,97492.66
2022-12-15T10:36:31.771Z,97476.90
2022-12-15T10:39:43.644Z,97473.10
2022-12-15T10:42:50.074Z,97474.29
2022-12-15T10:46:26.827Z,97481.27
2022-12-15T10:49:30.680Z,97484.90
2022-12-15T10:52:37.776Z,97486.42
2022-12-15T10:55:49.820Z,97489.44
2022-12-15T10:58:57.013Z,97489.00
2022-12-15T11:02:24.653Z,97489.20
2022-12-15T11:05:30.020Z,97486.49
2022-12-15T11:08:33.138Z,97501.75
2022-12-15T11:12:05.711Z,97504.42
2022-12-15T11:15:32.099Z,97504.45
2022-12-15T11:18:42.567Z,97504.29
2022-12-15T11:21:52.462Z,97500.25
2022-12-15T11:25:11.267Z,97507.23
2022-12-15T11:28:33.009Z,97511.12
2022-12-15T11:31:41.851Z,97511.95
2022-12-15T11:34:46.886Z,97517.49
2022-12-15T11:37:56.644Z,97526.55
2022-12-15T11:41:17.861Z,97532.73
2022-12-15T11:45:02.949Z,97533.77
2022-12-15T11:48:14.372Z,97544.45
2022-12-15T11:51:24.484Z,97549.31
2022-12-15T11:54:39.243Z,97549.53
2022-12-15T11:57:57.935Z,97547.85
2022-12-15T12:01:17.160Z,97549.15
2022-12-15T12:04:24.959Z,97554.95
2022-12-15T12:07:49.802Z,97555.00
2022-12-15T12:11:05.627Z,97561.71
2022-12-15T12:14:23.855Z,97569.23
2022-12-15T12:17:48.802Z,97558.64
2022-12-15T12:21:22.218Z,97552.33
2022-12-15T12:24:28.860Z,97547.30
2022-12-15T12:27:48.797Z,97545.83
2022-12-15T12:30:56.421Z,97546.02
2022-12-15T12:34:08.938Z,97540.08
2022-12-15T12:37:35.597Z,97547.61
2022-12-15T12:40:38.675Z,97552.89
2022-12-15T12:43:50.219Z,97555.88
2022-12-15T12:46:57.906Z,97558.48
2022-12-15T12:50:07.968Z,97555.70
2022-12-15T12:53:27.416Z,97545.73
2022-12-15T12:56:33.471Z,97548.86
2022-12-15T12:59:39.412Z,97555.60
2022-12-15T13:02:50.758Z,97558.64
2022-12-15T13:05:55.024Z,97568.83
2022-12-15T13:09:00.835Z,97569.27
2022-12-15T13:12:20.788Z,97563.36
2022-12-15T13:15:29.958Z,97567.33
2022-12-15T13:18:55.799Z,97568.05
2022-12-15T13:21:59.459Z,97564.39
2022-12-15T13:25:23.633Z,97566.11
2022-12-15T13:28:42.900Z,97557.15
2022-12-15T13:31:50.316Z,97553.63
2022-12-15T13:34:53.892Z,97558.77
2022-12-15T13:38:03.122Z,97566.36
2022-12-15T13:41:22.922Z,97573.80
2022-12-15T13:44:41.884Z,97576.12
2022-12-15T13:47:55.828Z,97581.20
2022-12-15T13:51:18.117Z,97582.27
2022-12-15T13:54:34.115Z,97587.96
2022-12-15T13:57:51.604Z,97593.71
2022-12-15T14:00:57.159Z,97598.30
2022-12-15T14:04:15.809Z,97601.01
2022-12-15T14:07:19.065Z,97614.66
2022-12-15T14:10:29.818Z,97622.32
2022-12-15T14:13:36.511Z,97621.95
2022-12-15T14:16:40.259Z,97619.71
2022-12-15T14:19:46.729Z,97627.98
2022-12-15T14:22:56.844Z,97629.70
2022-12-15T14:26:08.905Z,97626.89
2022-12-15T14:29:15.218Z,97632.19
2022-12-15T14:32:18.512Z,97640.23
2022-12-15T14:35:39.404Z,97653.16
2022-12-15T14:38:45.348Z,97660.48
2022-12-15T14:41:51.809Z,97659.05
2022-12-15T14:44:58.082Z,97652.71
2022-12-15T14:48:39.500Z,97644.32
2022-12-15T14:51:38.500Z,97647.20
2022-12-15T14:54:52.738Z,97656.60
2022-12-15T14:57:56.084Z,97664.38
2022-12-15T15:01:01.034Z,97670.11
2022-12-15T15:04:07.626Z,97674.31
2022-12-15T15:07:19.187Z,97677.50
2022-12-15T15:10:29.959Z,97672.64
2022-12-15T15:13:40.799Z,97675.16
2022-12-15T15:16:44.586Z,97678.66
2022-12-15T15:20:00.693Z,97687.26
2022-12-15T15:23:12.875Z,97689.58
2022-12-15T15:26:16.737Z,97699.52
2022-12-15T15:29:38.836Z,97708.61
2022-12-15T15:32:54.089Z,97706.61
2022-12-15T15:36:02.430Z,97707.61
2022-12-15T15:39:16.248Z,97716.55
2022-12-15T15:42:19.386Z,97722.84
2022-12-15T15:45:22.850Z,97725.36
2022-12-15T15:48:31.272Z,97718.56
2022-12-15T15:51:35.515Z,97701.60
2022-12-15T15:54:38.953Z,97694.38
2022-12-15T15:57:42.331Z,97686.54
2022-12-15T16:00:45.488Z,97678.14
2022-12-15T16:03:48.703Z,97675.69
2022-12-15T16:06:53.010Z,97669.66
2022-12-15T16:09:56.982Z,97656.21
2022-12-15T16:13:02.206Z,97656.06
2022-12-15T16:16:06.933Z,97657.27
2022-12-15T16:19:12.048Z,97648.53
2022-12-15T16:22:18.154Z,97628.65
2022-12-15T16:25:32.870Z,97617.19
2022-12-15T16:28:40.740Z,97615.45
2022-12-15T16:31:45.727Z,97624.27
2022-12-15T16:34:51.509Z,97630.06
2022-12-15T16:37:54.944Z,97629.67
2022-12-15T16:41:04.837Z,97628.35
2022-12-15T16:44:12.562Z,97626.80
2022-12-15T16:47:16.159Z,97637.79
2022-12-15T16:50:21.819Z,97637.95
2022-12-15T16:53:26.671Z,97651.04
2022-12-15T16:56:33.165Z,97655.73
2022-12-15T16:59:36.417Z,97656.30
2022-12-15T17:02:42.068Z,97667.45
2022-12-15T17:05:49.603Z,97671.88
2022-12-15T17:08:56.665Z,97679.51
2022-12-15T17:12:00.582Z,97684.50
2022-12-15T17:15:16.033Z,97682.55
2022-12-15T17:18:24.883Z,97676.27
2022-12-15T17:21:54.646Z,97675.67
2022-12-15T17:24:57.731Z,97681.92
2022-12-15T17:28:01.366Z,97682.27
2022-12-15T17:31:04.585Z,97678.59
2022-12-15T17:34:22.000Z,97673.86
2022-12-15T17:37:28.105Z,97674.45
2022-12-15T17:40:43.223Z,97672.89
2022-12-15T17:44:09.675Z,97671.77
2022-12-15T17:47:14.740Z,97673.58
2022-12-15T17:50:18.775Z,97661.98
2022-12-15T17:53:24.215Z,97657.14
2022-12-15T17:56:27.431Z,97657.39
2022-12-15T17:59:32.290Z,97660.65
2022-12-15T18:02:36.338Z,97657.95
2022-12-15T18:05:39.791Z,97659.29
2022-12-15T18:08:43.088Z,97663.89
2022-12-15T18:11:46.967Z,97674.98
2022-12-15T18:14:50.528Z,97674.77
2022-12-15T18:17:54.173Z,97678.67
2022-12-15T18:21:03.295Z,97677.21
2022-12-15T18:24:15.050Z,97678.93
2022-12-15T18:27:21.676Z,97682.34
2022-12-15T18:30:26.439Z,97685.90
2022-12-15T18:33:30.885Z,97685.77
2022-12-15T18:36:35.371Z,97686.39
2022-12-15T18:39:38.407Z,97689.25
2022-12-15T18:42:41.750Z,97682.63
2022-12-15T18:45:45.785Z,97683.27
2022-12-15T18:48:48.793Z,97686.45
2022-12-15T18:51:52.086Z,97690.23
2022-12-15T18:54:55.149Z,97699.96
2022-12-15T18:58:01.991Z,97693.86
2022-12-15T19:01:06.825Z,97679.25
2022-12-15T19:04:09.847Z,97677.48
2022-12-15T19:07:12.953Z,97686.16
2022-12-15T19:10:15.991Z,97691.73
2022-12-15T19:13:22.492Z,97682.05
2022-12-15T19:16:25.799Z,97674.62
2022-12-15T19:20:10.400Z,97665.61
2022-12-15T19:23:14.638Z,97662.94
2022-12-15T19:26:17.592Z,97662.89
2022-12-15T19:29:23.222Z,97657.08
2022-12-15T19:32:26.921Z,97659.69
2022-12-15T19:35:30.033Z,97660.53
2022-12-15T19:38:36.533Z,97652.11
2022-12-15T19:41:39.536Z,97657.83
2022-12-15T19:44:42.515Z,97664.67
2022-12-15T19:47:45.577Z,97662.07
2022-12-15T19:50:51.863Z,97666.34
2022-12-15T19:53:56.526Z,97670.73
2022-12-15T19:56:59.519Z,97671.84
2022-12-15T20:00:06.551Z,97670.16
2022-12-15T20:03:14.999Z,97668.39
2022-12-15T20:06:19.999Z,97672.73
2022-12-15T20:09:23.022Z,97676.34
2022-12-15T20:12:26.172Z,97682.50
2022-12-15T20:15:29.472Z,97683.20
2022-12-15T20:18:32.912Z,97673.89
2022-12-15T20:21:38.784Z,97665.88
2022-12-15T20:24:43.221Z,97654.89
2022-12-15T20:27:47.720Z,97651.78
2022-12-15T20:30:51.507Z,97647.21
2022-12-15T20:33:54.721Z,97647.27
2022-12-15T20:36:57.852Z,97649.51
2022-12-15T20:40:01.009Z,97644.02
2022-12-15T20:43:11.491Z,97636.29
2022-12-15T20:46:19.648Z,97633.20
2022-12-15T20:49:23.910Z,97627.59
2022-12-15T20:52:27.260Z,97621.20
2022-12-15T20:55:31.482Z,97621.13
2022-12-15T20:58:40.188Z,97619.18
2022-12-15T21:01:44.599Z,97614.73
2022-12-15T21:04:48.125Z,97614.34
2022-12-15T21:07:51.730Z,97616.00
2022-12-15T21:10:58.502Z,97613.00
2022-12-15T21:14:04.667Z,97607.05
2022-12-15T21:17:18.009Z,97608.14
2022-12-15T21:20:21.041Z,97600.59
2022-12-15T21:23:27.491Z,97594.98
2022-12-15T21:26:30.508Z,97587.81
2022-12-15T21:29:35.324Z,97590.81
2022-12-15T21:32:38.483Z,97586.32
2022-12-15T21:35:43.158Z,97584.80
2022-12-15T21:38:49.034Z,97581.91
2022-12-15T21:41:52.752Z,97580.77
2022-12-15T21:44:58.240Z,97574.42
2022-12-15T21:48:19.689Z,97571.61
2022-12-15T21:51:22.752Z,97569.61
2022-12-15T21:54:31.337Z,97564.70
2022-12-15T21:57:34.665Z,97567.19
2022-12-15T22:00:42.292Z,97563.15
2022-12-15T22:03:52.676Z,97553.84
2022-12-15T22:06:57.693Z,97559.34
2022-12-15T22:10:00.680Z,97560.69
2022-12-15T22:13:03.869Z,97559.08
2022-12-15T22:16:08.779Z,97557.44
2022-12-15T22:19:13.606Z,97556.02
2022-12-15T22:22:16.862Z,97563.41
2022-12-15T22:25:23.461Z,97562.48
2022-12-15T22:28:28.643Z,97562.83
2022-12-15T22:31:31.705Z,97555.95
2022-12-15T22:34:34.891Z,97546.52
2022-12-15T22:37:37.907Z,97542.83
2022-12-15T22:40:40.968Z,97545.64
2022-12-15T22:43:46.639Z,97542.86
2022-12-15T22:46:52.229Z,97542.18
2022-12-15T22:49:57.105Z,97538.69
2022-12-15T22:53:00.822Z,97539.33
2022-12-15T22:56:12.713Z,97537.83
2022-12-15T22:59:24.536Z,97544.20
2022-12-15T23:02:39.508Z,97535.30
2022-12-15T23:05:42.675Z,97530.17
2022-12-15T23:08:45.826Z,97523.07
2022-12-15T23:11:48.916Z,97516.86
2022-12-15T23:15:10.499Z,97506.83
2022-12-15T23:18:13.736Z,97500.53
2022-12-15T23:21:16.864Z,97498.20
2022-12-15T23:24:19.821Z,97487.45
2022-12-15T23:27:22.799Z,97479.83
2022-12-15T23:30:26.036Z,97468.65
2022-12-15T23:33:30.046Z,97460.41
2022-12-15T23:36:33.272Z,97455.45
2022-12-15T23:39:36.276Z,97446.35
2022-12-15T23:42:39.328Z,97450.34
2022-12-15T23:45:43.120Z,97461.77
2022-12-15T23:48:46.158Z,97474.55
2022-12-15T23:51:49.225Z,97482.77
2022-12-15T23:54:52.256Z,97475.38
2022-12-15T23:57:56.818Z,97472.13
